createdAt,value
2017-02-17T00:00:27.440Z,6.1
2017-02-17T00:01:40.541Z,6.19
2017-02-17T00:02:53.689Z,6.17
2017-02-17T00:04:06.807Z,6.19
2017-02-17T00:05:19.529Z,6.16
2017-02-17T00:06:32.625Z,6.12
2017-02-17T00:07:45.751Z,6.1
2017-02-17T00:08:58.833Z,6.13
2017-02-17T00:10:11.963Z,6.15
2017-02-17T00:11:24.714Z,6.15
2017-02-17T00:12:37.829Z,6.22
2017-02-17T00:13:50.937Z,6.17
2017-02-17T00:15:04.028Z,6.09
2017-02-17T00:16:17.174Z,6.07
2017-02-17T00:17:30.290Z,6.06
2017-02-17T00:18:43.382Z,6.09
2017-02-17T00:19:56.461Z,6.01
2017-02-17T00:21:09.558Z,6.05
2017-02-17T00:22:22.253Z,6.06
2017-02-17T00:23:35.348Z,6.07
2017-02-17T00:24:48.494Z,6.01
2017-02-17T00:26:01.647Z,6.07
2017-02-17T00:27:14.792Z,5.97
2017-02-17T00:28:27.550Z,5.91
2017-02-17T00:29:40.652Z,5.97
2017-02-17T00:30:53.770Z,5.99
2017-02-17T00:32:07.132Z,5.9
2017-02-17T00:33:20.217Z,5.95
2017-02-17T00:34:33.310Z,5.92
2017-02-17T00:35:45.999Z,5.91
2017-02-17T00:36:58.721Z,5.9
2017-02-17T00:38:11.798Z,5.9
2017-02-17T00:39:24.920Z,5.94
2017-02-17T00:40:38.009Z,5.91
2017-02-17T00:41:51.154Z,5.9
2017-02-17T00:43:04.486Z,5.95
2017-02-17T00:44:17.603Z,5.92
2017-02-17T00:45:30.316Z,5.94
2017-02-17T00:46:43.413Z,5.95
2017-02-17T00:47:56.166Z,5.95
2017-02-17T00:49:09.236Z,5.99
2017-02-17T00:50:22.327Z,5.9
2017-02-17T00:51:35.398Z,5.94
2017-02-17T00:52:48.525Z,5.95
2017-02-17T00:54:01.621Z,5.95
2017-02-17T00:55:14.735Z,5.9
2017-02-17T00:56:27.799Z,5.92
2017-02-17T00:57:40.882Z,5.91
2017-02-17T00:58:53.923Z,5.91
2017-02-17T01:00:07.011Z,5.97
2017-02-17T01:01:19.313Z,5.98
2017-02-17T01:02:32.391Z,5.9
2017-02-17T01:03:45.474Z,5.91
2017-02-17T01:04:58.553Z,5.95
2017-02-17T01:06:11.254Z,5.91
2017-02-17T01:07:24.319Z,5.98
2017-02-17T01:08:37.446Z,5.92
2017-02-17T01:09:50.510Z,5.9
2017-02-17T01:11:03.663Z,5.9
2017-02-17T01:12:16.396Z,5.92
2017-02-17T01:13:29.079Z,5.91
2017-02-17T01:14:42.219Z,5.95
2017-02-17T01:15:55.283Z,5.88
2017-02-17T01:17:08.394Z,5.9
2017-02-17T01:18:21.139Z,5.77
2017-02-17T01:19:34.259Z,5.8
2017-02-17T01:20:47.375Z,5.76
2017-02-17T01:22:00.462Z,5.7
2017-02-17T01:23:12.823Z,5.65
2017-02-17T01:24:25.171Z,5.69
2017-02-17T01:25:38.314Z,5.62
2017-02-17T01:26:51.431Z,5.54
2017-02-17T01:28:04.555Z,5.54
2017-02-17T01:29:17.705Z,5.46
2017-02-17T01:30:30.390Z,5.58
2017-02-17T01:31:43.487Z,5.54
2017-02-17T01:32:56.582Z,5.52
2017-02-17T01:34:09.703Z,5.43
2017-02-17T01:35:22.366Z,5.4
2017-02-17T01:36:35.450Z,5.33
2017-02-17T01:37:48.547Z,5.28
2017-02-17T01:39:01.619Z,5.33
2017-02-17T01:40:14.281Z,5.18
2017-02-17T01:41:27.356Z,5.16
2017-02-17T01:42:40.449Z,5.15
2017-02-17T01:43:53.513Z,5.08
2017-02-17T01:45:06.598Z,5.04
2017-02-17T01:46:19.293Z,4.98
2017-02-17T01:47:32.006Z,5
2017-02-17T01:48:45.114Z,5.07
2017-02-17T01:49:58.216Z,4.98
2017-02-17T01:51:11.329Z,4.92
2017-02-17T01:52:24.067Z,4.92
2017-02-17T01:53:37.186Z,4.97
2017-02-17T01:54:50.314Z,4.94
2017-02-17T01:56:03.004Z,4.89
2017-02-17T01:57:15.743Z,4.9
2017-02-17T01:58:28.426Z,4.89
2017-02-17T01:59:41.503Z,4.67
2017-02-17T02:00:54.244Z,4.7
2017-02-17T02:02:07.360Z,4.75
2017-02-17T02:03:20.055Z,4.74
2017-02-17T02:04:33.118Z,4.74
2017-02-17T02:05:46.215Z,4.67
2017-02-17T02:06:59.292Z,4.64
2017-02-17T02:08:11.580Z,4.6
2017-02-17T02:09:24.289Z,4.6
2017-02-17T02:10:37.411Z,4.6
2017-02-17T02:11:50.484Z,4.58
2017-02-17T02:13:03.595Z,4.63
2017-02-17T02:14:15.927Z,4.6
2017-02-17T02:15:29.013Z,4.57
2017-02-17T02:16:42.134Z,4.58
2017-02-17T02:17:55.205Z,4.5
2017-02-17T02:19:07.906Z,4.56
2017-02-17T02:20:20.284Z,4.48
2017-02-17T02:21:33.371Z,4.5
2017-02-17T02:22:46.457Z,4.52
2017-02-17T02:23:59.567Z,4.5
2017-02-17T02:25:12.630Z,4.48
2017-02-17T02:26:25.702Z,4.49
2017-02-17T02:27:38.800Z,4.49
2017-02-17T02:28:51.885Z,4.49
2017-02-17T02:30:04.964Z,4.43
2017-02-17T02:31:18.058Z,4.49
2017-02-17T02:32:31.182Z,4.49
2017-02-17T02:33:44.333Z,4.49
2017-02-17T02:34:57.457Z,4.45
2017-02-17T02:36:10.574Z,4.46
2017-02-17T02:37:23.642Z,4.46
2017-02-17T02:38:37.034Z,4.45
2017-02-17T02:39:50.106Z,4.45
2017-02-17T02:41:03.179Z,4.45
2017-02-17T02:42:16.278Z,4.4
2017-02-17T02:43:29.025Z,4.34
2017-02-17T02:44:42.163Z,4.38
2017-02-17T02:45:55.277Z,4.4
2017-02-17T02:47:08.413Z,4.39
2017-02-17T02:48:21.151Z,4.32
2017-02-17T02:49:34.245Z,4.4
2017-02-17T02:50:46.953Z,4.39
2017-02-17T02:52:00.087Z,4.4
2017-02-17T02:53:13.158Z,4.36
2017-02-17T02:54:26.275Z,4.38
2017-02-17T02:55:39.369Z,4.28
2017-02-17T02:56:52.433Z,4.31
2017-02-17T02:58:05.524Z,4.34
2017-02-17T02:59:18.689Z,4.34
2017-02-17T03:00:31.394Z,4.32
2017-02-17T03:01:44.488Z,4.38
2017-02-17T03:02:57.605Z,4.36
2017-02-17T03:04:10.677Z,4.25
2017-02-17T03:05:23.200Z,4.4
2017-02-17T03:06:36.273Z,4.27
2017-02-17T03:07:49.335Z,4.3
2017-02-17T03:09:02.413Z,4.24
2017-02-17T03:10:15.473Z,4.31
2017-02-17T03:11:28.523Z,4.25
2017-02-17T03:12:41.671Z,4.27
2017-02-17T03:13:54.733Z,4.25
2017-02-17T03:15:07.841Z,4.22
2017-02-17T03:16:20.531Z,4.27
2017-02-17T03:17:33.627Z,4.21
2017-02-17T03:18:46.696Z,4.24
2017-02-17T03:19:59.750Z,4.21
2017-02-17T03:21:12.064Z,4.13
2017-02-17T03:22:24.409Z,4.09
2017-02-17T03:23:37.518Z,4.12
2017-02-17T03:24:50.645Z,4.18
2017-02-17T03:26:03.699Z,4.04
2017-02-17T03:27:16.818Z,4.14
2017-02-17T03:28:29.146Z,4.06
2017-02-17T03:29:42.214Z,4.1
2017-02-17T03:30:55.299Z,4.14
2017-02-17T03:32:08.002Z,4.03
2017-02-17T03:33:20.304Z,4.07
2017-02-17T03:34:33.012Z,4.07
2017-02-17T03:35:46.122Z,3.99
2017-02-17T03:36:59.228Z,4.07
2017-02-17T03:38:11.908Z,4
2017-02-17T03:39:25.001Z,4.06
2017-02-17T03:40:38.130Z,4.02
2017-02-17T03:41:51.245Z,4.06
2017-02-17T03:43:04.557Z,4
2017-02-17T03:44:17.237Z,3.99
2017-02-17T03:45:29.981Z,4.06
2017-02-17T03:46:43.109Z,4.02
2017-02-17T03:47:56.197Z,4.09
2017-02-17T03:49:09.293Z,4.03
2017-02-17T03:50:22.426Z,4
2017-02-17T03:51:35.584Z,4.02
2017-02-17T03:52:48.664Z,4.07
2017-02-17T03:54:01.704Z,4.1
2017-02-17T03:55:14.772Z,4.09
2017-02-17T03:56:27.852Z,4.1
2017-02-17T03:57:40.922Z,4.06
2017-02-17T03:58:54.006Z,4.1
2017-02-17T04:00:07.091Z,4.13
2017-02-17T04:01:20.211Z,4.02
2017-02-17T04:02:32.950Z,4.06
2017-02-17T04:03:46.032Z,4.13
2017-02-17T04:04:59.373Z,4.09
2017-02-17T04:06:12.468Z,4.07
2017-02-17T04:07:25.185Z,4.03
2017-02-17T04:08:38.253Z,4.07
2017-02-17T04:09:51.355Z,4.09
2017-02-17T04:11:04.027Z,4.06
2017-02-17T04:12:16.757Z,4.03
2017-02-17T04:13:29.480Z,4.13
2017-02-17T04:14:42.558Z,4.04
2017-02-17T04:15:55.629Z,4.06
2017-02-17T04:17:07.932Z,4.03
2017-02-17T04:18:20.996Z,4.03
2017-02-17T04:19:33.724Z,4.1
2017-02-17T04:20:47.105Z,4.03
2017-02-17T04:22:00.196Z,4.14
2017-02-17T04:23:12.861Z,4.12
2017-02-17T04:24:25.974Z,4.12
2017-02-17T04:25:39.083Z,4.06
2017-02-17T04:26:52.148Z,4.12
2017-02-17T04:28:05.231Z,4.1
2017-02-17T04:29:17.917Z,4.07
2017-02-17T04:30:30.997Z,4.09
2017-02-17T04:31:43.681Z,4.09
2017-02-17T04:32:56.764Z,4.1
2017-02-17T04:34:09.452Z,4.09
2017-02-17T04:35:21.837Z,4.09
2017-02-17T04:36:34.558Z,4.14
2017-02-17T04:37:47.672Z,4.04
2017-02-17T04:39:00.752Z,4.14
2017-02-17T04:40:13.850Z,4
2017-02-17T04:41:26.969Z,4.07
2017-02-17T04:42:40.086Z,4.06
2017-02-17T04:43:53.201Z,4.06
2017-02-17T04:45:06.306Z,4.03
2017-02-17T04:46:19.400Z,4.07
2017-02-17T04:47:32.522Z,4.03
2017-02-17T04:48:45.626Z,4.1
2017-02-17T04:49:58.695Z,4.09
2017-02-17T04:51:11.768Z,4.06
2017-02-17T04:52:24.488Z,4.07
2017-02-17T04:53:37.644Z,4.09
2017-02-17T04:54:50.729Z,4.1
2017-02-17T04:56:03.800Z,4.12
2017-02-17T04:57:16.905Z,4.1
2017-02-17T04:58:29.577Z,4.07
2017-02-17T04:59:42.655Z,4.02
2017-02-17T05:00:55.750Z,4.03
2017-02-17T05:02:08.868Z,4.1
2017-02-17T05:03:21.942Z,4.02
2017-02-17T05:04:34.996Z,4.06
2017-02-17T05:05:47.703Z,4.13
2017-02-17T05:07:00.815Z,4.07
2017-02-17T05:08:13.899Z,4.07
2017-02-17T05:09:26.599Z,4.09
2017-02-17T05:10:39.714Z,4.09
2017-02-17T05:11:52.832Z,4.04
2017-02-17T05:13:05.959Z,4.1
2017-02-17T05:14:19.055Z,4.09
2017-02-17T05:15:32.343Z,4.04
2017-02-17T05:16:45.404Z,4.02
2017-02-17T05:17:58.500Z,3.96
2017-02-17T05:19:11.244Z,4.03
2017-02-17T05:20:24.336Z,3.96
2017-02-17T05:21:37.457Z,4.04
2017-02-17T05:22:50.556Z,4.04
2017-02-17T05:24:03.629Z,4.02
2017-02-17T05:25:16.360Z,3.92
2017-02-17T05:26:29.064Z,3.88
2017-02-17T05:27:42.173Z,3.91
2017-02-17T05:28:54.931Z,3.91
2017-02-17T05:30:07.278Z,3.95
2017-02-17T05:31:20.356Z,3.96
2017-02-17T05:32:33.048Z,3.92
2017-02-17T05:33:46.182Z,3.88
2017-02-17T05:34:59.259Z,3.89
2017-02-17T05:36:12.307Z,3.85
2017-02-17T05:37:25.353Z,3.88
2017-02-17T05:38:38.460Z,3.81
2017-02-17T05:39:51.551Z,3.81
2017-02-17T05:41:04.665Z,3.81
2017-02-17T05:42:17.667Z,3.7
2017-02-17T05:43:30.763Z,3.74
2017-02-17T05:44:43.902Z,3.68
2017-02-17T05:45:57.022Z,3.7
2017-02-17T05:47:10.126Z,3.73
2017-02-17T05:48:23.246Z,3.66
2017-02-17T05:49:35.571Z,3.66
2017-02-17T05:50:48.708Z,3.67
2017-02-17T05:52:01.777Z,3.67
2017-02-17T05:53:14.906Z,3.64
2017-02-17T05:54:28.039Z,3.63
2017-02-17T05:55:40.719Z,3.66
2017-02-17T05:56:53.836Z,3.68
2017-02-17T05:58:06.890Z,3.56
2017-02-17T05:59:19.624Z,3.5
2017-02-17T06:00:32.734Z,3.52
2017-02-17T06:01:45.829Z,3.49
2017-02-17T06:02:58.968Z,3.48
2017-02-17T06:04:12.062Z,3.52
2017-02-17T06:05:25.139Z,3.49
2017-02-17T06:06:38.238Z,3.49
2017-02-17T06:07:51.350Z,3.49
2017-02-17T06:09:04.449Z,3.46
2017-02-17T06:10:17.141Z,3.49
2017-02-17T06:11:30.185Z,3.46
2017-02-17T06:12:42.939Z,3.37
2017-02-17T06:13:56.022Z,3.43
2017-02-17T06:15:09.106Z,3.37
2017-02-17T06:16:22.171Z,3.4
2017-02-17T06:17:35.242Z,3.37
2017-02-17T06:18:48.367Z,3.27
2017-02-17T06:20:01.465Z,3.3
2017-02-17T06:21:14.611Z,3.33
2017-02-17T06:22:27.316Z,3.29
2017-02-17T06:23:40.389Z,3.3
2017-02-17T06:24:53.465Z,3.31
2017-02-17T06:26:06.554Z,3.3
2017-02-17T06:27:19.643Z,3.31
2017-02-17T06:28:32.710Z,3.36
2017-02-17T06:29:45.832Z,3.26
2017-02-17T06:30:58.937Z,3.27
2017-02-17T06:32:11.995Z,3.3
2017-02-17T06:33:23.964Z,3.34
2017-02-17T06:34:36.684Z,3.21
2017-02-17T06:35:49.839Z,3.33
2017-02-17T06:37:02.557Z,3.27
2017-02-17T06:38:15.247Z,3.16
2017-02-17T06:39:28.304Z,3.26
2017-02-17T06:40:41.363Z,3.27
2017-02-17T06:41:54.482Z,3.31
2017-02-17T06:43:07.578Z,3.3
2017-02-17T06:44:20.668Z,3.26
2017-02-17T06:45:32.997Z,3.24
2017-02-17T06:46:46.073Z,3.37
2017-02-17T06:47:59.190Z,3.41
2017-02-17T06:49:12.259Z,3.37
2017-02-17T06:50:24.928Z,3.4
2017-02-17T06:51:38.020Z,3.4
2017-02-17T06:52:51.096Z,3.48
2017-02-17T06:54:04.229Z,3.5
2017-02-17T06:55:17.361Z,3.46
2017-02-17T06:56:30.076Z,3.49
2017-02-17T06:57:42.752Z,3.58
2017-02-17T06:58:55.896Z,3.61
2017-02-17T07:00:08.572Z,3.68
2017-02-17T07:01:21.628Z,3.7
2017-02-17T07:02:34.713Z,3.67
2017-02-17T07:03:47.789Z,3.73
2017-02-17T07:05:00.885Z,3.7
2017-02-17T07:06:13.627Z,3.78
2017-02-17T07:07:26.756Z,3.84
2017-02-17T07:08:39.826Z,3.85
2017-02-17T07:09:52.481Z,3.88
2017-02-17T07:11:05.591Z,3.89
2017-02-17T07:12:18.280Z,3.96
2017-02-17T07:13:31.351Z,4.04
2017-02-17T07:14:44.438Z,4.06
2017-02-17T07:15:57.519Z,4.04
2017-02-17T07:17:10.613Z,4
2017-02-17T07:18:23.707Z,4.18
2017-02-17T07:19:36.778Z,4.07
2017-02-17T07:20:50.131Z,4.21
2017-02-17T07:22:03.187Z,4.22
2017-02-17T07:23:15.118Z,4.28
2017-02-17T07:24:28.212Z,4.27
2017-02-17T07:25:41.332Z,4.28
2017-02-17T07:26:54.430Z,4.27
2017-02-17T07:28:07.502Z,4.3
2017-02-17T07:29:20.239Z,4.32
2017-02-17T07:30:33.294Z,4.39
2017-02-17T07:31:46.413Z,4.32
2017-02-17T07:32:59.566Z,4.36
2017-02-17T07:34:12.658Z,4.34
2017-02-17T07:35:25.773Z,4.36
2017-02-17T07:36:38.869Z,4.4
2017-02-17T07:37:51.941Z,4.27
2017-02-17T07:39:04.994Z,4.39
2017-02-17T07:40:16.940Z,4.38
2017-02-17T07:41:30.034Z,4.4
2017-02-17T07:42:43.162Z,4.43
2017-02-17T07:43:56.303Z,4.38
2017-02-17T07:45:08.967Z,4.43
2017-02-17T07:46:22.112Z,4.46
2017-02-17T07:47:35.256Z,4.45
2017-02-17T07:48:47.940Z,4.5
2017-02-17T07:50:01.075Z,4.45
2017-02-17T07:51:14.177Z,4.48
2017-02-17T07:52:27.347Z,4.46
2017-02-17T07:53:40.513Z,4.6
2017-02-17T07:54:53.616Z,4.46
2017-02-17T07:56:06.754Z,4.57
2017-02-17T07:57:19.451Z,4.5
2017-02-17T07:58:32.566Z,4.56
2017-02-17T07:59:45.616Z,4.56
2017-02-17T08:00:58.721Z,4.5
2017-02-17T08:02:11.489Z,4.58
2017-02-17T08:03:24.204Z,4.57
2017-02-17T08:04:37.276Z,4.56
2017-02-17T08:05:50.345Z,4.63
2017-02-17T08:07:03.049Z,4.58
2017-02-17T08:08:16.145Z,4.64
2017-02-17T08:09:29.209Z,4.6
2017-02-17T08:10:41.914Z,4.6
2017-02-17T08:11:54.594Z,4.58
2017-02-17T08:13:07.720Z,4.75
2017-02-17T08:14:20.411Z,4.68
2017-02-17T08:15:33.564Z,4.67
2017-02-17T08:16:46.630Z,4.75
2017-02-17T08:17:59.659Z,4.78
2017-02-17T08:19:12.402Z,4.71
2017-02-17T08:20:25.099Z,4.84
2017-02-17T08:21:38.167Z,4.76
2017-02-17T08:22:51.271Z,4.89
2017-02-17T08:24:04.347Z,4.9
2017-02-17T08:25:17.482Z,4.86
2017-02-17T08:26:30.589Z,4.94
2017-02-17T08:27:43.322Z,4.94
2017-02-17T08:28:56.025Z,4.92
2017-02-17T08:30:09.081Z,4.9
2017-02-17T08:31:21.435Z,4.95
2017-02-17T08:32:34.532Z,4.92
2017-02-17T08:33:46.872Z,5
2017-02-17T08:34:59.965Z,5.02
2017-02-17T08:36:12.701Z,4.98
2017-02-17T08:37:25.785Z,5
2017-02-17T08:38:38.867Z,5.07
2017-02-17T08:39:51.933Z,4.95
2017-02-17T08:41:05.011Z,5.08
2017-02-17T08:42:18.127Z,5.05
2017-02-17T08:43:30.852Z,5.04
2017-02-17T08:44:43.964Z,5.13
2017-02-17T08:45:57.068Z,5.12
2017-02-17T08:47:09.789Z,5.18
2017-02-17T08:48:22.079Z,5.19
2017-02-17T08:49:35.222Z,5.13
2017-02-17T08:50:47.521Z,5.16
2017-02-17T08:52:00.634Z,5.22
2017-02-17T08:53:13.338Z,5.25
2017-02-17T08:54:26.090Z,5.25
2017-02-17T08:55:39.210Z,5.31
2017-02-17T08:56:51.957Z,5.34
2017-02-17T08:58:05.049Z,5.4
2017-02-17T08:59:17.388Z,5.36
2017-02-17T09:00:30.472Z,5.36
2017-02-17T09:01:43.162Z,5.49
2017-02-17T09:02:56.261Z,5.41
2017-02-17T09:04:09.368Z,5.41
2017-02-17T09:05:22.446Z,5.52
2017-02-17T09:06:35.525Z,5.44
2017-02-17T09:07:48.264Z,5.41
2017-02-17T09:09:01.403Z,5.52
2017-02-17T09:10:14.124Z,5.55
2017-02-17T09:11:27.207Z,5.62
2017-02-17T09:12:40.282Z,5.61
2017-02-17T09:13:53.402Z,5.59
2017-02-17T09:15:06.488Z,5.52
2017-02-17T09:16:19.167Z,5.65
2017-02-17T09:17:31.931Z,5.61
2017-02-17T09:18:45.008Z,5.67
2017-02-17T09:19:58.095Z,5.64
2017-02-17T09:21:10.796Z,5.74
2017-02-17T09:22:23.863Z,5.77
2017-02-17T09:23:36.510Z,5.83
2017-02-17T09:24:49.613Z,5.9
2017-02-17T09:26:02.308Z,5.9
2017-02-17T09:27:15.043Z,5.9
2017-02-17T09:28:28.173Z,5.9
2017-02-17T09:29:40.821Z,5.97
2017-02-17T09:30:53.984Z,5.92
2017-02-17T09:32:07.031Z,6.06
2017-02-17T09:33:20.127Z,5.98
2017-02-17T09:34:32.875Z,6.09
2017-02-17T09:35:46.001Z,6.07
2017-02-17T09:36:59.124Z,6.07
2017-02-17T09:38:11.886Z,6.05
2017-02-17T09:39:24.957Z,6.1
2017-02-17T09:40:38.057Z,6.22
2017-02-17T09:41:51.167Z,6.15
2017-02-17T09:43:04.195Z,6.16
2017-02-17T09:44:16.865Z,6.17
2017-02-17T09:45:29.910Z,6.19
2017-02-17T09:46:43.039Z,6.17
2017-02-17T09:47:55.753Z,6.22
2017-02-17T09:49:08.849Z,6.13
2017-02-17T09:50:21.594Z,6.17
2017-02-17T09:51:34.690Z,6.29
2017-02-17T09:52:47.786Z,6.29
2017-02-17T09:54:00.133Z,6.29
2017-02-17T09:55:12.412Z,6.38
2017-02-17T09:56:25.147Z,6.38
2017-02-17T09:57:38.180Z,6.36
2017-02-17T09:58:51.309Z,6.46
2017-02-17T10:00:04.392Z,6.44
2017-02-17T10:01:17.075Z,6.56
2017-02-17T10:02:29.746Z,6.54
2017-02-17T10:03:42.850Z,6.59
2017-02-17T10:04:55.927Z,6.67
2017-02-17T10:06:08.968Z,6.67
2017-02-17T10:07:22.114Z,6.7
2017-02-17T10:08:35.241Z,6.78
2017-02-17T10:09:48.388Z,6.82
2017-02-17T10:11:01.482Z,6.89
2017-02-17T10:12:13.820Z,6.86
2017-02-17T10:13:26.942Z,6.96
2017-02-17T10:14:40.024Z,7.01
2017-02-17T10:15:52.751Z,7.11
2017-02-17T10:17:05.867Z,7.04
2017-02-17T10:18:19.251Z,7.1
2017-02-17T10:19:31.972Z,7.1
2017-02-17T10:20:44.643Z,7.15
2017-02-17T10:21:57.297Z,7.08
2017-02-17T10:23:10.463Z,7.1
2017-02-17T10:24:23.573Z,7.13
2017-02-17T10:25:36.682Z,7.11
2017-02-17T10:26:49.793Z,7.08
2017-02-17T10:28:02.849Z,7.22
2017-02-17T10:29:15.137Z,7.18
2017-02-17T10:30:28.258Z,7.22
2017-02-17T10:31:41.362Z,7.1
2017-02-17T10:32:54.404Z,7.08
2017-02-17T10:34:07.498Z,7.07
2017-02-17T10:35:20.567Z,7.05
2017-02-17T10:36:33.290Z,7.23
2017-02-17T10:37:46.385Z,7.11
2017-02-17T10:38:59.430Z,7.13
2017-02-17T10:40:12.207Z,7.08
2017-02-17T10:41:24.947Z,7.23
2017-02-17T10:42:38.042Z,7.08
2017-02-17T10:43:51.145Z,7.1
2017-02-17T10:45:03.859Z,7.18
2017-02-17T10:46:16.956Z,7.18
2017-02-17T10:47:30.083Z,7.11
2017-02-17T10:48:43.196Z,7.15
2017-02-17T10:49:56.311Z,7.11
2017-02-17T10:51:09.470Z,7.15
2017-02-17T10:52:22.591Z,7.15
2017-02-17T10:53:35.731Z,7.14
2017-02-17T10:54:48.834Z,7.13
2017-02-17T10:56:01.922Z,7.15
2017-02-17T10:57:15.023Z,7.07
2017-02-17T10:58:28.094Z,7.1
2017-02-17T10:59:41.164Z,7.11
2017-02-17T11:00:54.243Z,7.13
2017-02-17T11:02:07.401Z,7.13
2017-02-17T11:03:20.505Z,7.1
2017-02-17T11:04:33.226Z,7.08
2017-02-17T11:05:46.364Z,7.08
2017-02-17T11:06:59.061Z,7.13
2017-02-17T11:08:11.759Z,7.18
2017-02-17T11:09:24.838Z,7.11
2017-02-17T11:10:37.880Z,7.1
2017-02-17T11:11:50.943Z,7.01
2017-02-17T11:13:03.259Z,7.05
2017-02-17T11:14:16.363Z,7.07
2017-02-17T11:15:29.485Z,7.11
2017-02-17T11:16:42.585Z,7.11
2017-02-17T11:17:55.706Z,7.08
2017-02-17T11:19:09.177Z,7.08
2017-02-17T11:20:21.898Z,7.13
2017-02-17T11:21:35.011Z,7.13
2017-02-17T11:22:48.106Z,7.1
2017-02-17T11:24:01.180Z,7.08
2017-02-17T11:25:13.857Z,7.07
2017-02-17T11:26:26.628Z,7.1
2017-02-17T11:27:39.366Z,7.05
2017-02-17T11:28:52.040Z,7.01
2017-02-17T11:30:05.140Z,7.08
2017-02-17T11:31:17.854Z,7.1
2017-02-17T11:32:30.948Z,6.97
2017-02-17T11:33:44.047Z,7.04
2017-02-17T11:34:57.166Z,7.03
2017-02-17T11:36:10.296Z,6.97
2017-02-17T11:37:23.406Z,7
2017-02-17T11:38:36.491Z,7
2017-02-17T11:39:49.206Z,6.89
2017-02-17T11:41:02.271Z,6.96
2017-02-17T11:42:15.348Z,6.96
2017-02-17T11:43:28.419Z,6.97
2017-02-17T11:44:41.500Z,7.03
2017-02-17T11:45:54.610Z,6.92
2017-02-17T11:47:07.337Z,7.01
2017-02-17T11:48:20.021Z,7
2017-02-17T11:49:33.092Z,7.04
2017-02-17T11:50:46.195Z,7.07
2017-02-17T11:51:59.342Z,7.08
2017-02-17T11:53:12.503Z,7.01
2017-02-17T11:54:25.175Z,7.05
2017-02-17T11:55:38.228Z,7.07
2017-02-17T11:56:51.319Z,7.1
2017-02-17T11:58:04.458Z,7.14
2017-02-17T11:59:17.589Z,7.15
2017-02-17T12:00:30.629Z,7.28
2017-02-17T12:01:43.735Z,7.28
2017-02-17T12:02:57.063Z,7.25
2017-02-17T12:04:09.774Z,7.33
2017-02-17T12:05:22.471Z,7.46
2017-02-17T12:06:35.563Z,7.5
2017-02-17T12:07:48.695Z,7.51
2017-02-17T12:09:01.805Z,7.5
2017-02-17T12:10:14.904Z,7.67
2017-02-17T12:11:27.974Z,7.47
2017-02-17T12:12:41.088Z,7.66
2017-02-17T12:13:54.193Z,7.62
2017-02-17T12:15:06.857Z,7.55
2017-02-17T12:16:20.004Z,7.64
2017-02-17T12:17:33.197Z,7.66
2017-02-17T12:18:46.243Z,7.55
2017-02-17T12:19:59.344Z,7.55
2017-02-17T12:21:12.414Z,7.56
2017-02-17T12:22:25.167Z,7.61
2017-02-17T12:23:37.889Z,7.58
2017-02-17T12:24:51.002Z,7.56
2017-02-17T12:26:04.117Z,7.53
2017-02-17T12:27:16.832Z,7.48
2017-02-17T12:28:29.916Z,7.51
2017-02-17T12:29:42.631Z,7.5
2017-02-17T12:30:55.376Z,7.56
2017-02-17T12:32:08.106Z,7.55
2017-02-17T12:33:21.262Z,7.53
2017-02-17T12:34:34.341Z,7.5
2017-02-17T12:35:47.444Z,7.47
2017-02-17T12:37:00.567Z,7.43
2017-02-17T12:38:13.695Z,7.46
2017-02-17T12:39:26.754Z,7.39
2017-02-17T12:40:39.836Z,7.37
2017-02-17T12:41:52.520Z,7.25
2017-02-17T12:43:04.834Z,7.32
2017-02-17T12:44:17.535Z,7.28
2017-02-17T12:45:30.271Z,7.28
2017-02-17T12:46:42.621Z,7.25
2017-02-17T12:47:55.742Z,7.28
2017-02-17T12:49:08.439Z,7.25
2017-02-17T12:50:21.536Z,7.29
2017-02-17T12:51:34.618Z,7.23
2017-02-17T12:52:47.727Z,7.25
2017-02-17T12:54:00.391Z,7.23
2017-02-17T12:55:13.436Z,7.25
2017-02-17T12:56:26.158Z,7.28
2017-02-17T12:57:38.867Z,7.19
2017-02-17T12:58:51.607Z,7.25
2017-02-17T13:00:04.287Z,7.23
2017-02-17T13:01:17.030Z,7.13
2017-02-17T13:02:29.767Z,7.21
2017-02-17T13:03:42.924Z,7.14
2017-02-17T13:04:55.617Z,7.18
2017-02-17T13:06:08.353Z,7.22
2017-02-17T13:07:21.101Z,7.15
2017-02-17T13:08:33.831Z,7.13
2017-02-17T13:09:47.001Z,7.21
2017-02-17T13:11:00.102Z,7.19
2017-02-17T13:12:12.843Z,7.18
2017-02-17T13:13:25.557Z,7.21
2017-02-17T13:14:38.660Z,7.13
2017-02-17T13:15:51.755Z,7.23
2017-02-17T13:17:04.845Z,7.07
2017-02-17T13:18:17.540Z,7.11
2017-02-17T13:19:30.693Z,7.14
2017-02-17T13:20:43.790Z,7.08
2017-02-17T13:21:56.927Z,7.04
2017-02-17T13:23:09.974Z,7.05
2017-02-17T13:24:23.070Z,7.03
2017-02-17T13:25:35.747Z,7.01
2017-02-17T13:26:48.911Z,7
2017-02-17T13:28:02.019Z,7
2017-02-17T13:29:15.146Z,6.95
2017-02-17T13:30:28.274Z,6.83
2017-02-17T13:31:41.370Z,6.89
2017-02-17T13:32:54.471Z,6.87
2017-02-17T13:34:07.539Z,6.86
2017-02-17T13:35:20.259Z,6.86
2017-02-17T13:36:33.378Z,6.87
2017-02-17T13:37:46.481Z,6.95
2017-02-17T13:38:59.602Z,6.93
2017-02-17T13:40:12.645Z,6.96
2017-02-17T13:41:25.735Z,7.01
2017-02-17T13:42:38.840Z,7.05
2017-02-17T13:43:51.935Z,7.13
2017-02-17T13:45:04.631Z,7.1
2017-02-17T13:46:17.370Z,7.15
2017-02-17T13:47:30.500Z,7.21
2017-02-17T13:48:43.611Z,7.22
2017-02-17T13:49:56.689Z,7.15
2017-02-17T13:51:09.353Z,7.21
2017-02-17T13:52:22.074Z,7.21
2017-02-17T13:53:35.196Z,7.19
2017-02-17T13:54:48.268Z,7.14
2017-02-17T13:56:00.563Z,7.21
2017-02-17T13:57:12.889Z,7.19
2017-02-17T13:58:25.629Z,7.19
2017-02-17T13:59:38.724Z,7.11
2017-02-17T14:00:51.830Z,7.23
2017-02-17T14:02:04.893Z,7.21
2017-02-17T14:03:17.239Z,7.13
2017-02-17T14:04:30.311Z,7.1
2017-02-17T14:05:43.410Z,7.08
2017-02-17T14:06:56.126Z,7.08
2017-02-17T14:08:09.248Z,7.05
2017-02-17T14:09:21.968Z,7.13
2017-02-17T14:10:35.023Z,7.05
2017-02-17T14:11:47.735Z,7.15
2017-02-17T14:13:00.861Z,7.13
2017-02-17T14:14:13.574Z,7.1
2017-02-17T14:15:26.320Z,7.1
2017-02-17T14:16:39.386Z,7.08
2017-02-17T14:17:52.326Z,7.08
2017-02-17T14:19:05.441Z,7.1
2017-02-17T14:20:18.481Z,7.01
2017-02-17T14:21:31.557Z,7.07
2017-02-17T14:22:44.658Z,7.04
2017-02-17T14:23:57.374Z,7
2017-02-17T14:25:10.488Z,6.96
2017-02-17T14:26:23.210Z,6.93
2017-02-17T14:27:36.311Z,6.95
2017-02-17T14:28:49.408Z,7
2017-02-17T14:30:02.481Z,6.89
2017-02-17T14:31:15.200Z,6.9
2017-02-17T14:32:28.314Z,6.9
2017-02-17T14:33:40.992Z,6.95
2017-02-17T14:34:53.705Z,6.89
2017-02-17T14:36:06.833Z,6.89
2017-02-17T14:37:19.173Z,6.86
2017-02-17T14:38:32.295Z,6.87
2017-02-17T14:39:45.638Z,6.9
2017-02-17T14:40:58.702Z,6.77
2017-02-17T14:42:11.759Z,6.8
2017-02-17T14:43:24.816Z,6.78
2017-02-17T14:44:37.898Z,6.8
2017-02-17T14:45:50.969Z,6.78
2017-02-17T14:47:03.673Z,6.78
2017-02-17T14:48:16.809Z,6.8
2017-02-17T14:49:29.938Z,6.78
2017-02-17T14:50:43.102Z,6.77
2017-02-17T14:51:56.203Z,6.77
2017-02-17T14:53:09.336Z,6.78
2017-02-17T14:54:22.031Z,6.75
2017-02-17T14:55:34.766Z,6.7
2017-02-17T14:56:47.862Z,6.75
2017-02-17T14:58:00.977Z,6.77
2017-02-17T14:59:13.739Z,6.74
2017-02-17T15:00:26.425Z,6.68
2017-02-17T15:01:39.539Z,6.71
2017-02-17T15:02:52.273Z,6.67
2017-02-17T15:04:04.988Z,6.64
2017-02-17T15:05:17.753Z,6.57
2017-02-17T15:06:30.904Z,6.6
2017-02-17T15:07:43.700Z,6.57
2017-02-17T15:08:56.740Z,6.62
2017-02-17T15:10:09.862Z,6.62
2017-02-17T15:11:22.980Z,6.6
2017-02-17T15:12:36.108Z,6.57
2017-02-17T15:13:49.220Z,6.62
2017-02-17T15:15:02.289Z,6.67
2017-02-17T15:16:14.989Z,6.6
2017-02-17T15:17:28.144Z,6.59
2017-02-17T15:18:41.312Z,6.57
2017-02-17T15:19:54.052Z,6.57
2017-02-17T15:21:07.155Z,6.65
2017-02-17T15:22:19.851Z,6.53
2017-02-17T15:23:32.971Z,6.54
2017-02-17T15:24:46.090Z,6.49
2017-02-17T15:25:59.137Z,6.5
2017-02-17T15:27:12.210Z,6.49
2017-02-17T15:28:25.273Z,6.52
2017-02-17T15:29:38.368Z,6.46
2017-02-17T15:30:51.459Z,6.46
2017-02-17T15:32:04.540Z,6.5
2017-02-17T15:33:17.239Z,6.49
2017-02-17T15:34:30.352Z,6.44
2017-02-17T15:35:42.653Z,6.46
2017-02-17T15:36:54.971Z,6.5
2017-02-17T15:38:08.138Z,6.46
2017-02-17T15:39:20.848Z,6.43
2017-02-17T15:40:33.925Z,6.44
2017-02-17T15:41:47.010Z,6.38
2017-02-17T15:43:00.067Z,6.36
2017-02-17T15:44:12.393Z,6.32
2017-02-17T15:45:25.123Z,6.36
2017-02-17T15:46:38.230Z,6.29
2017-02-17T15:47:50.938Z,6.36
2017-02-17T15:49:04.112Z,6.44
2017-02-17T15:50:16.855Z,6.35
2017-02-17T15:51:30.020Z,6.25
2017-02-17T15:52:42.741Z,6.28
2017-02-17T15:53:55.835Z,6.31
2017-02-17T15:55:08.532Z,6.2
2017-02-17T15:56:21.605Z,6.32
2017-02-17T15:57:34.299Z,6.26
2017-02-17T15:58:46.973Z,6.29
2017-02-17T15:59:59.723Z,6.29
2017-02-17T16:01:12.844Z,6.34
2017-02-17T16:02:25.534Z,6.29
2017-02-17T16:03:38.636Z,6.22
2017-02-17T16:04:51.782Z,6.25
2017-02-17T16:06:04.902Z,6.31
2017-02-17T16:07:17.973Z,6.31
2017-02-17T16:08:31.038Z,6.32
2017-02-17T16:09:43.332Z,6.22
2017-02-17T16:10:55.704Z,6.32
2017-02-17T16:12:08.827Z,6.29
2017-02-17T16:13:21.903Z,6.31
2017-02-17T16:14:34.637Z,6.29
2017-02-17T16:15:47.738Z,6.15
2017-02-17T16:17:00.452Z,6.19